Archival Weather

Chicago O'Hare International

Chicago, Illinois (KORD)

Report from: Saturday, March 18, 2023 1:51 AM CDT
Current time: Saturday, March 2, 2024 3:53 AM CST

Current weather – Weather history – Daily summaries
Weather forecast

Temperature-6.7°C (19.9°F)
Wind chill-14.4°C (6.2°F)
Dew point-15.0°C (5.0°F)
Winds 13 kts (6.7 m/s, 15 mph) West (270°)
Wind gusts 22 kts (11.3 m/s, 25.3 mph)
Peak wind 28 kts (14.4 m/s, 32.2 mph) West (280°) at 06:00
Visibility10 mi. (16.1 km)
Clouds Scattered clouds 3,500 ft. (1,067 m)
Altimeter29.89 in.Hg (1012 mB)
Relative humidity52 %
Density altitude-2,652 ft. (-808 m)
Sea-level pressure101.3 kPa (1013 mB, 29.92 in.Hg)
Remarks Automated weather observing station with precipitation discriminator
Flight conditions Visual Meteorological Conditions
Raw dataKORD 180651Z 27013G22KT 10SM SCT035 M07/M15 A2989 RMK AO2 PK WND 28028/0600 SLP131 T10671150
An error has occurred. This application may no longer respond until reloaded. Reload 🗙